Edgewater Beach, Maryland
Current Conditions -  °F | °C
As of 4:54 PM on Thursday 18 Dec 2014 (Local Time) from KNAK Reporting Station
Few Clouds Few Clouds  
Wind Chill: 38°   Ceiling: Unl
Heat Index: 38°   Visibility: 10mi
Dew Point: 24°   Wind: 3mph
Humidity: 57%   Direction: NA
Pressure: 30.09"   Gusts: NA
Location:  38.9095°N, 76.5486°W
Report Text: KNAK 182154Z AUTO VRB03KT 10SM FEW043 03/M04 A3009 RMK AO2 SLP192 T00331044 $
Loading
Personal Weather Stations






























Interactive Weather Map New forecast layout! Learn more

10-Day Weather Forecast

Advertisements
Track Severe Weather on mobile